createdAt,value
2022-09-13T00:02:26.695Z,148873.75
2022-09-13T00:07:31.320Z,148858.31
2022-09-13T00:12:37.197Z,148890.53
2022-09-13T00:17:41.810Z,148875.03
2022-09-13T00:22:46.078Z,148854.41
2022-09-13T00:27:51.960Z,148863.44
2022-09-13T00:32:56.746Z,148848.00
2022-09-13T00:38:02.893Z,148829.97
2022-09-13T00:43:18.114Z,148844.09
2022-09-13T00:48:26.107Z,148810.63
2022-09-13T00:53:32.863Z,148815.81
2022-09-13T00:58:42.616Z,148824.78
2022-09-13T01:03:47.636Z,148828.66
2022-09-13T01:08:55.251Z,148814.53
2022-09-13T01:14:02.248Z,148837.69
2022-09-13T01:19:06.989Z,148818.38
2022-09-13T01:24:39.586Z,148823.50
2022-09-13T01:30:10.338Z,148775.84
2022-09-13T01:35:23.078Z,148797.75
2022-09-13T01:40:46.689Z,148810.63
2022-09-13T01:46:02.359Z,148769.41
2022-09-13T01:51:13.119Z,148772.00
2022-09-13T01:56:25.487Z,148775.84
2022-09-13T02:01:38.479Z,148759.09
2022-09-13T02:06:48.185Z,148752.69
2022-09-13T02:11:58.348Z,148705.00
2022-09-13T02:17:08.073Z,148627.72
2022-09-13T02:22:18.028Z,148580.09
2022-09-13T02:27:28.183Z,148582.66
2022-09-13T02:32:40.642Z,148587.84
2022-09-13T02:37:50.528Z,148574.94
2022-09-13T02:43:00.068Z,148576.22
2022-09-13T02:48:12.987Z,148569.81
2022-09-13T02:53:25.589Z,148574.94
2022-09-13T02:58:36.793Z,148604.56
2022-09-13T03:03:43.073Z,148555.66
2022-09-13T03:08:47.447Z,148542.75
2022-09-13T03:14:07.752Z,148517.03
2022-09-13T03:19:46.210Z,148499.00
2022-09-13T03:24:59.341Z,148511.91
2022-09-13T03:30:07.437Z,148487.41
2022-09-13T03:35:25.210Z,148492.59
2022-09-13T03:40:41.031Z,148482.31
2022-09-13T03:45:50.639Z,148475.84
2022-09-13T03:50:57.436Z,148493.88
2022-09-13T03:56:02.416Z,148478.41
2022-09-13T04:01:06.880Z,148466.84
2022-09-13T04:06:12.668Z,148474.56
2022-09-13T04:11:17.121Z,148463.00
2022-09-13T04:16:21.706Z,148419.25
2022-09-13T04:21:28.162Z,148452.69
2022-09-13T04:26:32.746Z,148451.41
2022-09-13T04:31:37.646Z,148468.09
2022-09-13T04:36:43.565Z,148444.97
2022-09-13T04:41:50.808Z,148437.28
2022-09-13T04:46:56.042Z,148430.81
2022-09-13T04:52:01.733Z,148470.72
2022-09-13T04:57:07.071Z,148447.56
2022-09-13T05:02:11.563Z,148469.44
2022-09-13T05:07:19.733Z,148470.72
2022-09-13T05:12:23.841Z,148515.75
2022-09-13T05:17:28.355Z,148542.75
2022-09-13T05:22:34.012Z,148611.00
2022-09-13T05:27:38.230Z,148667.63
2022-09-13T05:32:43.018Z,148706.34
2022-09-13T05:37:50.984Z,148733.34
2022-09-13T05:42:55.464Z,148800.31
2022-09-13T05:48:00.115Z,148831.25
2022-09-13T05:53:06.640Z,148854.41
2022-09-13T05:58:11.485Z,148867.28
2022-09-13T06:03:15.836Z,148945.94
2022-09-13T06:08:22.189Z,149021.97
2022-09-13T06:13:27.679Z,149069.63
2022-09-13T06:18:32.527Z,149064.50
2022-09-13T06:23:38.286Z,149081.25
2022-09-13T06:28:44.065Z,149135.44
2022-09-13T06:33:50.174Z,149232.16
2022-09-13T06:38:57.264Z,149601.28
2022-09-13T06:44:03.374Z,150014.78
2022-09-13T06:49:09.811Z,150665.84
2022-09-13T06:54:16.020Z,150298.06
2022-09-13T06:59:20.331Z,150434.03
2022-09-13T07:04:25.308Z,150865.44
2022-09-13T07:09:31.788Z,150735.81
2022-09-13T07:14:35.965Z,150663.25
2022-09-13T07:19:40.205Z,150944.50
2022-09-13T07:24:46.110Z,151059.91
2022-09-13T07:29:50.920Z,151124.75
2022-09-13T07:34:55.042Z,151525.81
2022-09-13T07:40:01.084Z,151872.72
2022-09-13T07:45:07.044Z,151457.00
2022-09-13T07:50:12.511Z,150960.03
2022-09-13T07:55:18.276Z,151494.66
2022-09-13T08:00:22.795Z,151593.34
2022-09-13T08:05:27.287Z,151379.13
2022-09-13T08:10:33.705Z,151189.59
2022-09-13T08:15:38.088Z,151089.75
2022-09-13T08:20:42.878Z,150804.47
2022-09-13T08:25:48.868Z,150790.25
2022-09-13T08:30:53.576Z,151126.09
2022-09-13T08:35:58.915Z,151049.53
2022-09-13T08:41:22.989Z,150689.16
2022-09-13T08:46:30.443Z,150935.41
2022-09-13T08:51:39.596Z,150831.75
2022-09-13T08:56:52.692Z,150757.84
2022-09-13T09:02:07.990Z,150855.09
2022-09-13T09:07:17.054Z,150796.69
2022-09-13T09:12:34.906Z,150702.16
2022-09-13T09:17:48.232Z,150914.69
2022-09-13T09:22:55.530Z,150923.75
2022-09-13T09:28:03.385Z,151066.41
2022-09-13T09:33:24.105Z,151033.94
2022-09-13T09:38:41.425Z,150877.13
2022-09-13T09:43:54.069Z,150950.97
2022-09-13T09:49:28.316Z,151115.72
2022-09-13T09:54:32.795Z,150954.88
2022-09-13T09:59:38.651Z,151005.41
2022-09-13T10:04:44.277Z,151096.25
2022-09-13T10:10:02.823Z,151021.00
2022-09-13T10:15:18.580Z,151192.25
2022-09-13T10:20:27.908Z,151083.28
2022-09-13T10:25:33.765Z,151346.69
2022-09-13T10:30:43.347Z,151107.91
2022-09-13T10:35:49.903Z,151451.78
2022-09-13T10:40:54.882Z,151257.09
2022-09-13T10:46:03.895Z,151446.59
2022-09-13T12:39:31.493Z,150987.28
2022-09-13T12:44:49.853Z,151137.75
2022-09-13T12:50:43.527Z,151028.78
2022-09-13T12:56:05.006Z,151102.72
2022-09-13T13:01:16.487Z,151071.63
2022-09-13T13:06:29.948Z,151163.69
2022-09-13T13:11:47.937Z,151119.59
2022-09-13T13:16:53.848Z,151037.81
2022-09-13T13:21:58.832Z,151078.09
2022-09-13T13:27:37.294Z,151021.00
2022-09-13T13:33:07.162Z,151017.13
2022-09-13T13:38:18.862Z,150918.56
2022-09-13T13:43:34.664Z,151004.13
2022-09-13T13:48:42.360Z,150996.38
2022-09-13T13:53:59.756Z,151024.88
2022-09-13T13:59:15.485Z,151072.91
2022-09-13T14:04:48.561Z,151037.81
2022-09-13T14:10:02.912Z,150995.09
2022-09-13T14:15:29.875Z,151006.75
2022-09-13T14:20:33.976Z,150984.69
2022-09-13T14:25:38.935Z,151058.63
2022-09-13T14:30:47.963Z,151136.47
2022-09-13T14:36:00.749Z,151027.44
2022-09-13T14:41:15.430Z,151122.16
2022-09-13T14:46:27.222Z,150986.00
2022-09-13T14:51:38.846Z,150905.59
2022-09-13T14:56:47.608Z,150888.78
2022-09-13T15:01:54.612Z,150846.00
2022-09-13T15:07:10.984Z,150870.63
2022-09-13T15:12:26.763Z,150886.19
2022-09-13T15:17:32.805Z,150899.16
2022-09-13T15:22:37.647Z,150928.91
2022-09-13T15:27:48.098Z,150952.28
2022-09-13T15:33:07.010Z,150888.78
2022-09-13T15:38:24.616Z,150844.72
2022-09-13T15:43:30.254Z,150879.69
2022-09-13T15:48:37.564Z,150833.06
2022-09-13T15:53:44.825Z,150778.59
2022-09-13T15:58:49.791Z,150796.69
2022-09-13T16:03:56.123Z,150720.25
2022-09-13T16:09:00.793Z,150747.47
2022-09-13T16:14:04.850Z,150766.94
2022-09-13T16:19:15.061Z,150702.16
2022-09-13T16:24:19.323Z,150674.91
2022-09-13T16:29:24.227Z,150672.34
2022-09-13T16:34:29.952Z,150616.66
2022-09-13T16:39:34.713Z,150619.22
2022-09-13T16:44:39.169Z,150595.94
2022-09-13T16:49:46.404Z,150597.22
2022-09-13T16:54:52.674Z,150546.66
2022-09-13T16:59:58.777Z,150557.00
2022-09-13T17:05:05.630Z,150527.25
2022-09-13T17:10:12.729Z,150472.88
2022-09-13T17:15:17.450Z,150507.84
2022-09-13T17:20:23.602Z,150500.06
2022-09-13T17:25:28.259Z,150419.81
2022-09-13T17:30:32.609Z,150400.38
2022-09-13T17:35:38.739Z,150365.47
2022-09-13T17:40:43.596Z,150357.69
2022-09-13T17:45:47.808Z,150333.09
2022-09-13T17:50:53.526Z,150298.06
2022-09-13T17:55:58.216Z,150318.78
2022-09-13T18:01:04.691Z,150316.22
2022-09-13T18:06:14.426Z,150281.28
2022-09-13T19:38:00.993Z,150216.59
2022-09-13T19:43:05.639Z,150202.38
2022-09-13T19:48:37.822Z,150207.53
2022-09-13T19:53:55.931Z,150181.69
2022-09-13T19:59:02.697Z,150164.84
2022-09-13T20:04:09.039Z,150092.41
2022-09-13T20:09:17.487Z,150124.75
2022-09-13T20:14:22.662Z,150122.16
2022-09-13T20:19:41.544Z,150139.00
2022-09-13T20:24:50.122Z,150135.09
2022-09-13T20:29:56.124Z,150133.78
2022-09-13T20:35:01.394Z,150132.50
2022-09-13T20:40:09.931Z,150105.38
2022-09-13T20:45:17.113Z,150142.84
2022-09-13T20:50:21.506Z,150114.44
2022-09-13T20:55:28.008Z,150132.50
2022-09-13T21:00:32.975Z,150124.75
2022-09-13T21:05:38.905Z,150142.84
2022-09-13T21:10:44.757Z,150132.50
2022-09-13T21:15:50.862Z,150104.09
2022-09-13T21:20:59.483Z,150136.44
2022-09-13T21:26:06.516Z,150106.66
2022-09-13T21:31:19.503Z,150100.19
2022-09-13T21:36:27.121Z,150079.47
2022-09-13T21:41:33.505Z,150075.63
2022-09-13T21:46:39.874Z,150070.44
2022-09-13T21:51:47.055Z,150071.75
2022-09-13T21:56:55.289Z,150067.84
2022-09-13T22:02:00.571Z,150062.69
2022-09-13T22:07:06.300Z,150038.06
2022-09-13T22:12:12.268Z,150069.13
2022-09-13T22:17:17.244Z,150083.41
2022-09-13T22:22:21.313Z,150109.25
2022-09-13T22:27:27.299Z,150117.00
2022-09-13T22:32:31.718Z,150150.63
2022-09-13T22:37:36.489Z,150106.66
2022-09-13T22:42:42.611Z,150122.16
2022-09-13T22:47:47.063Z,150107.94
2022-09-13T22:52:52.072Z,150058.78
2022-09-13T22:57:57.964Z,150093.75
2022-09-13T23:03:02.312Z,150123.44
2022-09-13T23:08:07.405Z,150137.72
2022-09-13T23:13:13.488Z,150171.34
2022-09-13T23:18:18.491Z,150120.88
2022-09-13T23:23:23.044Z,150113.09
2022-09-13T23:28:31.432Z,150129.94
2022-09-13T23:33:35.676Z,150098.91
2022-09-13T23:38:39.965Z,150132.50
2022-09-13T23:43:46.537Z,150142.84
2022-09-13T23:48:51.920Z,150114.44
2022-09-13T23:53:58.548Z,150131.22
2022-09-13T23:59:05.822Z,150127.34
